KDRT/DRT METAR and TAF weather

Enter ICAO airport designator
Station Type Date Time Source
KDRT METAR 2018/10/16 20:53 UTC NOAA

KDRT 162053Z AUTO 33010KT 10SM OVC021 09/06 A3024 RMK AO2 SLP236 T00890056 55015


Station Type Date Time Source
KDRT Decoded METAR 2018/10/16 20:53 UTC NOAA

DEL RIO INTERNATIONAL AIRPORT, TX, United States (KDRT) 29-22N 100-55W 313M
Oct 16, 2018 - 04:53 PM EDT / 2018.10.16 2053 UTC
Wind: from the NNW (330 degrees) at 12 MPH (10 KT):0
Visibility: 10 mile(s):0
Sky conditions: overcast
Temperature: 48.0 F (8.9 C)
Dew Point: 42.1 F (5.6 C)
Relative Humidity: 79%
Pressure (altimeter): 30.24 in. Hg (1024 hPa)
Pressure tendency: 0.04 inches (1.5 hPa) lower than three hours ago
ob: KDRT 162053Z AUTO 33010KT 10SM OVC021 09/06 A3024 RMK AO2 SLP236 T00890056 55015
cycle: 21

Station Type Date Time Source
KDRT TAF 2018/10/16 21:21 UTC NOAA

TAF
AMD KDRT 162117Z 1621/1718 33011KT P6SM VCSH OVC020


Example: see airport list